createdAt,value
2023-05-13T00:00:49.646Z,8.48
2023-05-13T00:03:17.252Z,7.78
2023-05-13T00:05:45.988Z,7.07
2023-05-13T00:08:13.349Z,6.25
2023-05-13T00:10:40.807Z,6.93
2023-05-13T00:13:08.877Z,8.13
2023-05-13T00:15:36.425Z,6.60
2023-05-13T00:18:03.873Z,9.63
2023-05-13T00:20:31.409Z,7.10
2023-05-13T00:22:58.787Z,6.65
2023-05-13T00:25:26.157Z,6.30
2023-05-13T00:27:53.603Z,6.95
2023-05-13T00:30:21.480Z,7.88
2023-05-13T00:32:49.349Z,8.05
2023-05-13T00:35:16.834Z,8.00
2023-05-13T00:37:44.455Z,7.88
2023-05-13T00:40:21.129Z,6.93
2023-05-13T00:42:48.721Z,7.35
2023-05-13T00:45:16.452Z,6.82
2023-05-13T00:47:44.503Z,9.07
2023-05-13T00:50:13.980Z,8.52
2023-05-13T00:52:42.619Z,8.70
2023-05-13T00:55:11.279Z,11.70
2023-05-13T00:57:40.473Z,9.55
2023-05-13T01:00:08.702Z,11.68
2023-05-13T01:02:51.372Z,11.57
2023-05-13T01:05:40.777Z,10.18
2023-05-13T01:08:20.683Z,8.98
2023-05-13T01:10:59.468Z,8.93
2023-05-13T01:13:31.478Z,8.88
2023-05-13T01:18:43.695Z,7.30
2023-05-13T01:21:12.296Z,8.40
2023-05-13T01:23:39.600Z,7.20
2023-05-13T01:26:06.947Z,7.40
2023-05-13T01:28:34.633Z,7.30
2023-05-13T01:31:03.922Z,7.03
2023-05-13T01:33:32.126Z,7.88
2023-05-13T01:35:59.566Z,7.70
2023-05-13T01:38:28.681Z,7.72
2023-05-13T01:40:59.204Z,7.22
2023-05-13T01:43:28.022Z,10.00
2023-05-13T01:45:56.307Z,8.02
2023-05-13T01:48:24.295Z,8.18
2023-05-13T01:50:52.792Z,9.38
2023-05-13T01:53:20.280Z,8.82
2023-05-13T01:55:50.068Z,8.18
2023-05-13T01:58:17.455Z,8.25
2023-05-13T02:00:44.806Z,7.88
2023-05-13T02:03:12.488Z,7.82
2023-05-13T02:05:39.885Z,7.88
2023-05-13T02:08:09.201Z,8.15
2023-05-13T02:10:38.651Z,8.27
2023-05-13T02:13:06.268Z,8.15
2023-05-13T02:15:33.639Z,8.05
2023-05-13T02:18:01.088Z,8.52
2023-05-13T02:20:28.553Z,8.77
2023-05-13T02:22:58.588Z,8.07
2023-05-13T02:25:25.958Z,9.63
2023-05-13T02:27:53.289Z,7.93
2023-05-13T02:30:21.097Z,9.27
2023-05-13T02:32:48.606Z,9.20
2023-05-13T02:35:16.150Z,10.35
2023-05-13T02:37:44.090Z,7.72
2023-05-13T02:40:12.389Z,7.45
2023-05-13T02:42:40.112Z,7.10
2023-05-13T02:45:09.590Z,7.00
2023-05-13T02:47:40.346Z,9.85
2023-05-13T02:50:10.624Z,7.95
2023-05-13T02:52:41.856Z,9.77
2023-05-13T02:55:10.451Z,11.25
2023-05-13T02:57:38.153Z,10.50
2023-05-13T03:00:07.127Z,8.07
2023-05-13T03:02:36.711Z,8.07
2023-05-13T03:05:04.678Z,7.57
2023-05-13T03:07:32.077Z,6.75
2023-05-13T03:09:59.423Z,7.57
2023-05-13T03:12:27.737Z,8.48
2023-05-13T03:14:54.924Z,7.93
2023-05-13T03:17:22.350Z,9.13
2023-05-13T03:19:50.782Z,6.72
2023-05-13T03:22:18.438Z,8.23
2023-05-13T03:24:46.217Z,9.10
2023-05-13T03:27:14.177Z,8.15
2023-05-13T03:29:41.390Z,7.95
2023-05-13T03:32:09.129Z,9.30
2023-05-13T03:34:38.057Z,7.78
2023-05-13T03:37:06.349Z,10.00
2023-05-13T03:39:33.800Z,9.38
2023-05-13T03:42:01.403Z,7.82
2023-05-13T03:44:29.046Z,8.52
2023-05-13T03:46:56.514Z,8.80
2023-05-13T03:49:24.056Z,12.27
2023-05-13T03:51:51.300Z,8.43
2023-05-13T03:54:18.796Z,9.02
2023-05-13T03:56:46.118Z,14.40
2023-05-13T03:59:13.403Z,12.00
2023-05-13T04:01:41.355Z,8.45
2023-05-13T04:04:09.448Z,7.97
2023-05-13T04:06:36.892Z,9.00
2023-05-13T04:09:04.868Z,9.32
2023-05-13T04:11:32.494Z,7.72
2023-05-13T04:13:59.964Z,6.18
2023-05-13T04:16:28.016Z,8.68
2023-05-13T04:18:55.487Z,7.90
2023-05-13T04:21:22.918Z,8.05
2023-05-13T04:23:51.100Z,7.28
2023-05-13T04:26:19.249Z,9.18
2023-05-13T04:28:46.534Z,12.35
2023-05-13T04:31:14.024Z,9.43
2023-05-13T04:33:41.767Z,9.65
2023-05-13T04:36:09.346Z,13.20
2023-05-13T04:38:36.863Z,8.02
2023-05-13T04:41:05.098Z,8.88
2023-05-13T04:43:40.410Z,7.22
2023-05-13T04:46:08.022Z,7.38
2023-05-13T04:48:35.436Z,7.70
2023-05-13T04:51:03.984Z,7.13
2023-05-13T04:53:32.248Z,6.32
2023-05-13T04:56:02.731Z,6.38
2023-05-13T04:58:30.894Z,7.60
2023-05-13T05:00:58.337Z,8.23
2023-05-13T05:03:26.215Z,8.10
2023-05-13T05:05:54.393Z,8.00
2023-05-13T05:08:22.837Z,8.18
2023-05-13T05:10:51.571Z,8.20
2023-05-13T05:13:19.611Z,7.20
2023-05-13T05:15:46.956Z,9.80
2023-05-13T05:18:15.372Z,6.13
2023-05-13T05:20:45.643Z,7.60
2023-05-13T05:23:18.021Z,6.55
2023-05-13T05:25:45.970Z,6.25
2023-05-13T05:28:13.946Z,6.20
2023-05-13T05:30:43.499Z,8.80
2023-05-13T05:33:20.696Z,7.28
2023-05-13T05:35:49.075Z,9.98
2023-05-13T05:38:18.337Z,9.30
2023-05-13T05:40:47.358Z,8.68
2023-05-13T05:43:16.542Z,7.85
2023-05-13T05:45:44.355Z,8.40
2023-05-13T05:48:16.062Z,6.95
2023-05-13T05:50:43.898Z,7.80
2023-05-13T05:53:15.759Z,7.00
2023-05-13T05:55:43.060Z,8.23
2023-05-13T05:58:14.567Z,6.88
2023-05-13T06:00:42.121Z,13.05
2023-05-13T06:03:10.017Z,7.30
2023-05-13T06:05:38.377Z,6.22
2023-05-13T06:08:05.978Z,9.60
2023-05-13T06:10:33.256Z,9.48
2023-05-13T06:13:00.591Z,8.18
2023-05-13T06:15:29.644Z,8.73
2023-05-13T06:17:57.903Z,9.27
2023-05-13T06:20:25.814Z,7.13
2023-05-13T06:22:53.032Z,7.32
2023-05-13T06:25:20.361Z,8.35
2023-05-13T06:27:47.631Z,14.88
2023-05-13T06:30:16.230Z,6.63
2023-05-13T06:32:53.548Z,6.65
2023-05-13T06:35:25.179Z,7.22
2023-05-13T06:37:52.710Z,7.03
2023-05-13T06:40:20.581Z,7.40
2023-05-13T06:42:48.082Z,6.53
2023-05-13T06:45:23.719Z,7.53
2023-05-13T06:47:52.134Z,7.40
2023-05-13T06:50:20.867Z,10.13
2023-05-13T06:52:48.489Z,5.43
2023-05-13T06:55:16.894Z,11.98
2023-05-13T06:57:47.477Z,6.68
2023-05-13T07:00:16.073Z,6.50
2023-05-13T07:02:43.724Z,6.03
2023-05-13T07:05:11.945Z,5.93
2023-05-13T07:07:39.693Z,6.88
2023-05-13T07:10:07.901Z,6.78
2023-05-13T07:12:35.343Z,7.40
2023-05-13T07:15:02.715Z,6.18
2023-05-13T07:17:31.462Z,7.25
2023-05-13T07:19:59.431Z,5.97
2023-05-13T07:22:28.048Z,5.80
2023-05-13T07:24:56.335Z,7.30
2023-05-13T07:27:23.720Z,9.63
2023-05-13T07:29:51.084Z,6.75
2023-05-13T07:32:18.752Z,7.15
2023-05-13T07:34:47.202Z,6.38
2023-05-13T07:37:14.441Z,7.25
2023-05-13T07:39:42.003Z,6.60
2023-05-13T07:42:09.479Z,9.05
2023-05-13T07:44:36.814Z,8.35
2023-05-13T07:47:04.227Z,8.75
2023-05-13T07:49:31.527Z,7.18
2023-05-13T07:51:58.904Z,8.63
2023-05-13T07:54:26.359Z,7.95
2023-05-13T07:56:53.812Z,6.90
2023-05-13T07:59:21.274Z,13.80
2023-05-13T08:01:50.702Z,8.15
2023-05-13T08:04:18.943Z,8.30
2023-05-13T08:06:46.476Z,5.45
2023-05-13T08:09:15.468Z,9.00
2023-05-13T08:11:42.986Z,7.63
2023-05-13T08:14:10.380Z,8.82
2023-05-13T08:16:38.086Z,9.70
2023-05-13T08:19:05.709Z,8.30
2023-05-13T08:21:33.291Z,6.13
2023-05-13T08:24:00.614Z,10.23
2023-05-13T08:26:27.907Z,8.80
2023-05-13T08:28:55.418Z,8.98
2023-05-13T08:31:25.333Z,7.72
2023-05-13T08:33:55.635Z,8.90
2023-05-13T08:36:23.387Z,6.85
2023-05-13T08:38:50.661Z,7.30
2023-05-13T08:41:20.458Z,10.02
2023-05-13T08:44:13.597Z,7.85
2023-05-13T08:46:43.825Z,8.07
2023-05-13T08:49:11.521Z,5.57
2023-05-13T08:51:38.854Z,6.03
2023-05-13T08:54:09.997Z,5.20
2023-05-13T08:56:37.793Z,6.22
2023-05-13T08:59:05.156Z,7.35
2023-05-13T09:01:32.948Z,5.50
2023-05-13T09:04:10.627Z,6.10
2023-05-13T09:06:37.936Z,7.63
2023-05-13T09:09:06.115Z,7.80
2023-05-13T09:11:34.209Z,6.28
2023-05-13T09:14:07.456Z,8.00
2023-05-13T09:16:36.553Z,8.30
2023-05-13T09:19:05.792Z,6.30
2023-05-13T09:21:36.270Z,7.70
2023-05-13T09:24:11.158Z,9.70
2023-05-13T09:26:39.488Z,6.20
2023-05-13T09:29:26.842Z,5.57
2023-05-13T09:31:56.224Z,6.18
2023-05-13T09:34:29.538Z,7.32
2023-05-13T09:36:58.125Z,5.10
2023-05-13T09:39:25.859Z,6.22
2023-05-13T09:41:53.554Z,5.30
2023-05-13T09:44:22.484Z,5.50
2023-05-13T09:46:52.911Z,7.68
2023-05-13T09:49:28.560Z,5.00
2023-05-13T09:51:55.933Z,6.25
2023-05-13T09:54:23.373Z,11.68
2023-05-13T09:56:58.168Z,6.53
2023-05-13T09:59:26.102Z,12.40
2023-05-13T10:01:55.732Z,6.40
2023-05-13T10:04:24.338Z,6.47
2023-05-13T10:06:52.173Z,5.88
2023-05-13T10:09:20.905Z,5.78
2023-05-13T10:11:48.743Z,5.63
2023-05-13T10:14:17.245Z,8.77
2023-05-13T10:16:46.849Z,6.35
2023-05-13T10:19:14.473Z,5.72
2023-05-13T10:21:42.423Z,8.70
2023-05-13T10:24:10.218Z,4.55
2023-05-13T10:26:38.086Z,4.70
2023-05-13T10:29:06.009Z,6.25
2023-05-13T10:31:36.825Z,7.38
2023-05-13T10:34:04.868Z,7.47
2023-05-13T10:36:41.398Z,7.00
2023-05-13T10:39:24.656Z,5.53
2023-05-13T10:42:10.702Z,5.50
2023-05-13T10:44:38.227Z,5.53
2023-05-13T10:47:05.651Z,4.80
2023-05-13T10:49:37.622Z,4.47
2023-05-13T10:54:39.344Z,4.85
2023-05-13T10:57:07.857Z,5.40
2023-05-13T10:59:37.425Z,4.97
2023-05-13T11:02:24.653Z,5.55
2023-05-13T11:05:02.656Z,5.07
2023-05-13T11:07:31.288Z,5.97
2023-05-13T11:10:00.002Z,5.55
2023-05-13T11:12:27.311Z,4.70
2023-05-13T11:14:58.927Z,5.25
2023-05-13T11:17:31.586Z,5.32
2023-05-13T11:19:59.566Z,6.45
2023-05-13T11:22:29.982Z,5.40
2023-05-13T11:25:10.671Z,4.35
2023-05-13T11:27:42.726Z,6.10
2023-05-13T11:30:30.359Z,5.38
2023-05-13T11:32:58.866Z,4.78
2023-05-13T11:35:31.262Z,7.20
2023-05-13T11:38:00.713Z,7.65
2023-05-13T11:40:31.998Z,5.78
2023-05-13T11:43:00.205Z,4.82
2023-05-13T11:45:28.563Z,5.25
2023-05-13T11:47:59.429Z,4.57
2023-05-13T11:50:31.009Z,4.38
2023-05-13T11:53:00.154Z,7.60
2023-05-13T11:55:36.308Z,5.57
2023-05-13T11:58:04.324Z,4.75
2023-05-13T12:00:34.328Z,5.50
2023-05-13T12:03:10.565Z,6.53
2023-05-13T12:05:39.337Z,5.40
2023-05-13T12:08:10.011Z,5.10
2023-05-13T12:10:43.808Z,5.28
2023-05-13T12:13:11.652Z,8.13
2023-05-13T12:15:39.260Z,4.63
2023-05-13T12:18:07.734Z,5.60
2023-05-13T12:20:35.809Z,4.72
2023-05-13T12:23:04.492Z,4.80
2023-05-13T12:25:40.667Z,5.15
2023-05-13T12:28:10.880Z,4.93
2023-05-13T12:30:43.373Z,5.57
2023-05-13T12:33:19.036Z,6.60
2023-05-13T12:35:48.815Z,5.47
2023-05-13T12:38:20.888Z,4.25
2023-05-13T12:40:49.185Z,4.70
2023-05-13T12:43:18.226Z,5.70
2023-05-13T12:45:47.407Z,5.22
2023-05-13T12:48:14.849Z,4.82
2023-05-13T12:50:42.348Z,4.57
2023-05-13T12:53:09.652Z,5.13
2023-05-13T12:55:40.264Z,8.88
2023-05-13T12:58:11.225Z,4.65
2023-05-13T13:00:38.805Z,5.53
2023-05-13T13:03:06.204Z,5.32
2023-05-13T13:05:33.824Z,4.60
2023-05-13T13:08:05.514Z,4.47
2023-05-13T13:10:33.095Z,5.60
2023-05-13T13:13:00.420Z,4.88
2023-05-13T13:15:27.850Z,4.50
2023-05-13T13:17:55.171Z,4.35
2023-05-13T13:20:22.689Z,5.47
2023-05-13T13:22:50.527Z,6.43
2023-05-13T13:25:17.815Z,4.68
2023-05-13T13:27:45.344Z,4.82
2023-05-13T13:30:13.446Z,6.68
2023-05-13T13:32:40.900Z,4.43
2023-05-13T13:35:08.457Z,4.78
2023-05-13T13:37:36.268Z,5.28
2023-05-13T13:40:05.913Z,4.68
2023-05-13T13:42:43.396Z,4.35
2023-05-13T13:45:12.761Z,3.97
2023-05-13T13:47:40.900Z,3.70
2023-05-13T13:50:08.461Z,4.25
2023-05-13T13:52:35.984Z,4.80
2023-05-13T13:55:03.858Z,5.68
2023-05-13T13:57:31.272Z,4.07
2023-05-13T13:59:58.659Z,5.93
2023-05-13T14:02:26.078Z,5.47
2023-05-13T14:04:53.959Z,7.22
2023-05-13T14:07:22.989Z,5.68
2023-05-13T14:09:50.540Z,4.03
2023-05-13T14:12:18.171Z,5.70
2023-05-13T14:14:45.395Z,6.45
2023-05-13T14:17:14.334Z,3.92
2023-05-13T14:19:42.567Z,4.85
2023-05-13T14:22:09.849Z,6.10
2023-05-13T14:24:37.124Z,5.60
2023-05-13T14:27:04.627Z,4.40
2023-05-13T14:29:31.830Z,5.15
2023-05-13T14:31:59.782Z,4.32
2023-05-13T14:34:27.316Z,4.72
2023-05-13T14:36:54.745Z,5.40
2023-05-13T14:39:22.184Z,4.50
2023-05-13T14:41:49.443Z,4.68
2023-05-13T14:44:16.663Z,5.57
2023-05-13T14:46:43.940Z,4.30
2023-05-13T14:49:11.589Z,5.45
2023-05-13T14:51:39.075Z,4.30
2023-05-13T14:54:06.532Z,4.57
2023-05-13T14:56:33.856Z,4.10
2023-05-13T14:59:02.535Z,5.03
2023-05-13T15:01:29.809Z,5.88
2023-05-13T15:03:59.687Z,4.55
2023-05-13T15:06:27.112Z,5.35
2023-05-13T15:08:54.512Z,6.43
2023-05-13T15:11:21.784Z,4.60
2023-05-13T15:13:49.102Z,5.00
2023-05-13T15:16:16.690Z,5.25
2023-05-13T15:18:44.129Z,4.80
2023-05-13T15:21:11.552Z,4.72
2023-05-13T15:23:38.797Z,4.50
2023-05-13T15:26:06.453Z,4.40
2023-05-13T15:28:33.695Z,5.63
2023-05-13T15:31:01.087Z,5.13
2023-05-13T15:33:28.868Z,4.82
2023-05-13T15:35:56.111Z,4.55
2023-05-13T15:38:23.370Z,4.30
2023-05-13T15:40:50.737Z,5.00
2023-05-13T15:43:18.424Z,4.40
2023-05-13T15:45:46.812Z,4.50
2023-05-13T15:48:14.229Z,5.25
2023-05-13T15:50:41.718Z,4.78
2023-05-13T15:53:09.210Z,6.15
2023-05-13T15:55:37.643Z,9.15
2023-05-13T15:58:05.529Z,4.88
2023-05-13T16:00:33.036Z,4.07
2023-05-13T16:03:01.008Z,4.10
2023-05-13T16:05:28.867Z,4.68
2023-05-13T16:07:57.291Z,4.25
2023-05-13T16:10:25.095Z,6.47
2023-05-13T16:12:52.488Z,4.63
2023-05-13T16:15:20.522Z,5.65
2023-05-13T16:17:47.915Z,4.30
2023-05-13T16:20:15.223Z,4.72
2023-05-13T16:22:43.510Z,4.38
2023-05-13T16:25:12.080Z,5.75
2023-05-13T16:27:40.628Z,4.53
2023-05-13T16:30:08.204Z,5.35
2023-05-13T16:32:35.633Z,4.53
2023-05-13T16:35:04.090Z,4.47
2023-05-13T16:37:34.725Z,4.50
2023-05-13T16:40:02.140Z,4.78
2023-05-13T16:42:29.510Z,4.80
2023-05-13T16:44:56.774Z,4.85
2023-05-13T16:47:24.442Z,4.30
2023-05-13T16:49:51.890Z,5.38
2023-05-13T16:52:19.238Z,4.88
2023-05-13T16:54:47.094Z,5.25
2023-05-13T16:57:17.806Z,4.80
2023-05-13T16:59:46.110Z,4.82
2023-05-13T17:02:13.431Z,4.85
2023-05-13T17:04:41.303Z,4.53
2023-05-13T17:07:11.430Z,5.07
2023-05-13T17:09:38.785Z,4.95
2023-05-13T17:12:06.455Z,4.93
2023-05-13T17:14:33.823Z,5.32
2023-05-13T17:17:01.505Z,6.13
2023-05-13T17:19:29.452Z,5.03
2023-05-13T17:21:57.170Z,5.25
2023-05-13T17:24:24.480Z,5.35
2023-05-13T17:26:51.690Z,5.25
2023-05-13T17:29:19.123Z,5.65
2023-05-13T17:31:46.646Z,5.90
2023-05-13T17:34:14.262Z,5.20
2023-05-13T17:36:41.734Z,6.72
2023-05-13T17:39:09.471Z,5.18
2023-05-13T17:41:37.059Z,5.90
2023-05-13T17:44:04.679Z,6.47
2023-05-13T17:46:31.873Z,8.07
2023-05-13T17:48:59.186Z,6.22
2023-05-13T17:51:26.705Z,6.95
2023-05-13T17:53:54.217Z,6.63
2023-05-13T17:56:22.468Z,6.85
2023-05-13T17:58:50.173Z,7.30
2023-05-13T18:01:19.963Z,7.10
2023-05-13T18:03:47.487Z,6.63
2023-05-13T18:06:15.233Z,6.78
2023-05-13T18:08:42.649Z,7.65
2023-05-13T18:11:09.926Z,10.15
2023-05-13T18:13:37.225Z,7.18
2023-05-13T18:16:06.319Z,7.72
2023-05-13T18:18:33.679Z,8.05
2023-05-13T18:21:01.522Z,9.50
2023-05-13T18:23:29.039Z,7.47
2023-05-13T18:25:56.647Z,7.93
2023-05-13T18:28:23.911Z,8.27
2023-05-13T18:30:51.468Z,9.68
2023-05-13T18:33:21.102Z,8.35
2023-05-13T18:35:48.801Z,7.72
2023-05-13T18:38:16.659Z,8.60
2023-05-13T18:40:44.002Z,9.65
2023-05-13T18:43:11.350Z,7.97
2023-05-13T18:45:42.611Z,8.48
2023-05-13T18:48:10.047Z,8.75
2023-05-13T18:50:37.262Z,8.35
2023-05-13T18:53:04.788Z,9.00
2023-05-13T18:55:32.145Z,7.95
2023-05-13T18:57:59.584Z,8.77
2023-05-13T19:00:27.023Z,9.48
2023-05-13T19:02:54.396Z,9.00
2023-05-13T19:05:22.121Z,8.77
2023-05-13T19:07:49.413Z,8.32
2023-05-13T19:10:16.796Z,9.75
2023-05-13T19:12:44.319Z,9.98
2023-05-13T19:15:11.824Z,9.40
2023-05-13T19:17:40.452Z,11.77
2023-05-13T19:20:10.505Z,9.73
2023-05-13T19:22:37.788Z,10.45
2023-05-13T19:25:05.650Z,9.35
2023-05-13T19:27:33.177Z,9.40
2023-05-13T19:30:01.595Z,9.82
2023-05-13T19:32:30.009Z,9.95
2023-05-13T19:34:57.364Z,11.50
2023-05-13T19:37:26.458Z,11.00
2023-05-13T19:39:54.284Z,12.52
2023-05-13T19:42:21.935Z,12.43
2023-05-13T19:44:49.480Z,10.32
2023-05-13T19:47:16.843Z,10.52
2023-05-13T19:49:44.102Z,9.43
2023-05-13T19:52:11.511Z,10.57
2023-05-13T19:54:38.866Z,9.52
2023-05-13T19:57:06.561Z,11.73
2023-05-13T19:59:33.779Z,11.05
2023-05-13T20:02:01.137Z,13.52
2023-05-13T20:04:28.800Z,12.23
2023-05-13T20:06:56.094Z,11.98
2023-05-13T20:09:23.652Z,12.15
2023-05-13T20:11:51.147Z,11.90
2023-05-13T20:14:27.599Z,11.27
2023-05-13T20:16:55.127Z,11.68
2023-05-13T20:19:22.579Z,11.75
2023-05-13T20:21:49.970Z,12.60
2023-05-13T20:24:17.210Z,11.45
2023-05-13T20:26:44.706Z,12.02
2023-05-13T20:29:12.682Z,12.10
2023-05-13T20:31:42.858Z,11.63
2023-05-13T20:34:10.269Z,13.07
2023-05-13T20:36:38.874Z,14.55
2023-05-13T20:39:08.104Z,12.52
2023-05-13T20:41:35.455Z,13.38
2023-05-13T20:44:02.698Z,13.48
2023-05-13T20:46:30.249Z,15.57
2023-05-13T20:48:57.590Z,15.35
2023-05-13T20:51:24.845Z,17.27
2023-05-13T20:53:52.149Z,15.15
2023-05-13T20:56:19.478Z,15.25
2023-05-13T20:58:46.669Z,15.70
2023-05-13T21:01:13.993Z,15.57
2023-05-13T21:03:41.273Z,16.17
2023-05-13T21:06:09.096Z,14.52
2023-05-13T21:08:37.090Z,13.05
2023-05-13T21:11:05.724Z,14.68
2023-05-13T21:13:33.919Z,13.68
2023-05-13T21:16:05.985Z,14.35
2023-05-13T21:18:34.223Z,15.15
2023-05-13T21:21:01.795Z,15.35
2023-05-13T21:23:29.197Z,15.85
2023-05-13T21:25:56.480Z,19.02
2023-05-13T21:28:23.758Z,25.45
2023-05-13T21:30:51.038Z,28.52
2023-05-13T21:33:18.853Z,24.02
2023-05-13T21:35:46.372Z,19.02
2023-05-13T21:38:13.703Z,17.15
2023-05-13T21:40:41.045Z,17.98
2023-05-13T21:43:08.296Z,18.92
2023-05-13T21:45:35.550Z,18.35
2023-05-13T21:48:03.070Z,22.45
2023-05-13T21:50:30.646Z,26.83
2023-05-13T21:52:57.948Z,19.75
2023-05-13T21:55:25.291Z,15.60
2023-05-13T21:57:52.638Z,15.63
2023-05-13T22:00:21.614Z,18.08
2023-05-13T22:02:51.265Z,20.17
2023-05-13T22:05:18.658Z,16.65
2023-05-13T22:07:46.534Z,16.40
2023-05-13T22:10:13.819Z,17.00
2023-05-13T22:12:41.154Z,17.65
2023-05-13T22:15:09.653Z,21.27
2023-05-13T22:17:37.339Z,16.50
2023-05-13T22:20:05.371Z,17.17
2023-05-13T22:22:32.687Z,16.15
2023-05-13T22:24:59.972Z,14.05
2023-05-13T22:27:27.405Z,15.05
2023-05-13T22:29:54.751Z,13.75
2023-05-13T22:32:22.139Z,14.48
2023-05-13T22:34:51.145Z,17.50
2023-05-13T22:37:19.458Z,17.70
2023-05-13T22:39:46.651Z,16.02
2023-05-13T22:42:13.948Z,14.77
2023-05-13T22:44:41.246Z,12.30
2023-05-13T22:47:09.048Z,14.13
2023-05-13T22:49:36.266Z,13.00
2023-05-13T22:52:03.719Z,16.58
2023-05-13T22:54:31.334Z,13.75
2023-05-13T22:56:59.257Z,13.07
2023-05-13T22:59:27.705Z,14.27
2023-05-13T23:01:55.096Z,13.98
2023-05-13T23:04:22.544Z,15.48
2023-05-13T23:06:49.774Z,13.60
2023-05-13T23:09:17.092Z,15.27
2023-05-13T23:11:44.355Z,14.70
2023-05-13T23:14:11.657Z,14.10
2023-05-13T23:16:39.103Z,16.20
2023-05-13T23:19:06.613Z,16.35
2023-05-13T23:21:33.909Z,18.50
2023-05-13T23:24:01.265Z,15.90
2023-05-13T23:26:28.496Z,21.90
2023-05-13T23:28:55.930Z,18.02
2023-05-13T23:31:23.325Z,17.95
2023-05-13T23:33:50.582Z,17.20
2023-05-13T23:36:18.073Z,16.88
2023-05-13T23:38:45.339Z,15.68
2023-05-13T23:41:12.756Z,14.70
2023-05-13T23:43:40.070Z,15.00
2023-05-13T23:46:07.327Z,15.40
2023-05-13T23:48:34.688Z,14.80
2023-05-13T23:51:01.856Z,14.57
2023-05-13T23:53:29.046Z,15.57
2023-05-13T23:55:56.724Z,13.55
2023-05-13T23:58:23.958Z,14.80
